createdAt,value
2022-09-11T00:01:17.022Z,55.56
2022-09-11T00:03:45.683Z,55.59
2022-09-11T00:06:27.518Z,55.62
2022-09-11T00:09:00.335Z,55.63
2022-09-11T00:11:33.123Z,55.99
2022-09-11T00:14:00.265Z,55.44
2022-09-11T00:16:39.685Z,55.80
2022-09-11T00:19:08.872Z,55.37
2022-09-11T00:21:36.403Z,54.98
2022-09-11T00:24:04.360Z,55.45
2022-09-11T00:26:31.151Z,55.36
2022-09-11T00:28:57.666Z,55.76
2022-09-11T00:31:27.952Z,55.67
2022-09-11T00:33:55.145Z,55.54
2022-09-11T00:36:24.743Z,55.83
2022-09-11T00:38:52.152Z,55.46
2022-09-11T00:41:39.478Z,55.51
2022-09-11T00:44:29.172Z,56.17
2022-09-11T00:47:02.033Z,55.63
2022-09-11T00:49:38.491Z,56.22
2022-09-11T00:52:17.196Z,55.87
2022-09-11T00:54:54.135Z,55.75
2022-09-11T00:57:24.502Z,55.62
2022-09-11T00:59:54.663Z,55.68
2022-09-11T01:02:27.250Z,55.65
2022-09-11T01:04:55.236Z,55.51
2022-09-11T01:07:23.213Z,55.95
2022-09-11T01:09:51.197Z,55.39
2022-09-11T01:12:23.777Z,55.61
2022-09-11T01:15:05.367Z,55.62
2022-09-11T01:17:47.996Z,55.52
2022-09-11T01:20:17.316Z,55.39
2022-09-11T01:23:12.301Z,55.62
2022-09-11T01:25:50.907Z,55.38
2022-09-11T01:28:24.432Z,55.80
2022-09-11T01:31:01.286Z,55.42
2022-09-11T01:33:50.950Z,55.74
2022-09-11T01:36:28.798Z,55.84
2022-09-11T01:39:02.246Z,55.71
2022-09-11T01:41:53.123Z,55.67
2022-09-11T01:45:00.142Z,56.05
2022-09-11T01:47:30.070Z,55.72
2022-09-11T01:50:03.049Z,55.83
2022-09-11T01:52:36.998Z,55.87
2022-09-11T01:55:11.900Z,56.06
2022-09-11T01:57:51.567Z,56.07
2022-09-11T02:00:18.820Z,56.05
2022-09-11T02:02:52.018Z,55.94
2022-09-11T02:05:23.504Z,56.17
2022-09-11T02:07:54.631Z,56.21
2022-09-11T02:10:39.503Z,56.27
2022-09-11T02:13:13.659Z,56.44
2022-09-11T02:15:47.082Z,56.29
2022-09-11T02:18:24.752Z,56.02
2022-09-11T02:20:52.806Z,55.72
2022-09-11T02:23:20.640Z,55.67
2022-09-11T02:25:47.998Z,55.47
2022-09-11T02:28:14.542Z,55.64
2022-09-11T02:30:43.047Z,55.56
2022-09-11T02:33:28.965Z,55.93
2022-09-11T02:36:03.802Z,55.62
2022-09-11T02:38:41.153Z,55.61
2022-09-11T02:41:16.463Z,55.54
2022-09-11T02:44:20.604Z,55.87
2022-09-11T02:47:19.093Z,55.92
2022-09-11T02:50:36.869Z,56.05
2022-09-11T02:53:34.650Z,55.96
2022-09-11T02:56:33.088Z,55.93
2022-09-11T02:59:06.708Z,55.96
2022-09-11T03:01:50.365Z,56.14
2022-09-11T03:04:18.316Z,55.83
2022-09-11T03:06:45.216Z,56.11
2022-09-11T03:09:11.716Z,56.38
2022-09-11T03:11:38.700Z,56.02
2022-09-11T03:14:05.204Z,56.16
2022-09-11T03:16:31.765Z,56.07
2022-09-11T03:18:58.374Z,56.29
2022-09-11T03:21:24.826Z,56.28
2022-09-11T03:23:51.304Z,56.21
2022-09-11T03:26:17.748Z,56.46
2022-09-11T03:28:44.483Z,56.52
2022-09-11T03:31:11.410Z,56.23
2022-09-11T03:33:37.901Z,56.38
2022-09-11T03:36:04.731Z,56.43
2022-09-11T03:38:31.272Z,56.44
2022-09-11T03:40:58.393Z,56.54
2022-09-11T03:43:25.208Z,56.43
2022-09-11T03:45:52.071Z,56.88
2022-09-11T03:48:18.782Z,56.53
2022-09-11T03:50:45.914Z,56.59
2022-09-11T03:53:12.410Z,56.70
2022-09-11T03:55:38.894Z,56.91
2022-09-11T03:58:07.140Z,56.60
2022-09-11T04:00:33.812Z,56.60
2022-09-11T04:03:00.432Z,56.49
2022-09-11T04:05:27.378Z,56.54
2022-09-11T04:07:55.099Z,56.63
2022-09-11T04:10:21.874Z,56.55
2022-09-11T04:12:48.687Z,56.38
2022-09-11T04:15:15.333Z,56.51
2022-09-11T04:17:41.788Z,56.30
2022-09-11T04:20:08.900Z,56.35
2022-09-11T04:22:35.648Z,56.42
2022-09-11T04:25:02.134Z,56.29
2022-09-11T04:27:28.609Z,56.48
2022-09-11T04:29:55.128Z,56.23
2022-09-11T04:32:22.259Z,56.10
2022-09-11T04:34:48.836Z,56.40
2022-09-11T04:37:16.552Z,56.37
2022-09-11T04:39:43.390Z,56.21
2022-09-11T04:42:10.508Z,56.09
2022-09-11T04:44:37.531Z,56.32
2022-09-11T04:47:04.193Z,56.15
2022-09-11T04:49:30.808Z,56.22
2022-09-11T04:52:02.672Z,56.01
2022-09-11T04:54:29.144Z,56.18
2022-09-11T04:56:55.618Z,56.14
2022-09-11T04:59:23.823Z,56.23
2022-09-11T05:01:50.428Z,56.44
2022-09-11T05:04:20.834Z,56.79
2022-09-11T05:06:49.478Z,56.73
2022-09-11T05:09:17.628Z,57.19
2022-09-11T05:11:44.284Z,56.70
2022-09-11T05:14:11.664Z,57.00
2022-09-11T05:16:38.354Z,56.88
2022-09-11T05:19:05.139Z,56.57
2022-09-11T05:21:32.278Z,56.66
2022-09-11T05:24:01.174Z,56.88
2022-09-11T05:26:30.565Z,56.92
2022-09-11T05:29:02.353Z,57.24
2022-09-11T05:31:29.164Z,56.74
2022-09-11T05:33:56.541Z,56.77
2022-09-11T05:36:24.029Z,56.72
2022-09-11T05:38:50.835Z,56.92
2022-09-11T05:41:17.584Z,56.66
2022-09-11T05:43:44.495Z,57.05
2022-09-11T05:46:14.049Z,57.33
2022-09-11T05:48:40.977Z,57.10
2022-09-11T05:51:11.472Z,57.05
2022-09-11T05:53:38.052Z,56.92
2022-09-11T05:56:08.875Z,57.24
2022-09-11T05:58:36.057Z,56.92
2022-09-11T06:01:08.397Z,57.02
2022-09-11T06:03:36.776Z,56.95
2022-09-11T06:06:05.482Z,56.89
2022-09-11T06:08:33.503Z,57.03
2022-09-11T06:11:00.688Z,56.71
2022-09-11T06:13:31.855Z,56.83
2022-09-11T06:15:58.350Z,56.63
2022-09-11T06:18:24.856Z,56.87
2022-09-11T06:21:07.067Z,57.64
2022-09-11T06:23:35.184Z,57.17
2022-09-11T06:26:11.759Z,57.69
2022-09-11T06:28:39.081Z,57.47
2022-09-11T06:31:11.586Z,57.34
2022-09-11T06:33:40.161Z,57.28
2022-09-11T06:36:07.986Z,57.65
2022-09-11T06:38:35.501Z,56.95
2022-09-11T06:41:04.036Z,57.03
2022-09-11T06:43:31.529Z,56.89
2022-09-11T06:46:12.886Z,56.99
2022-09-11T06:48:40.771Z,56.68
2022-09-11T06:51:11.373Z,56.73
2022-09-11T06:53:38.967Z,56.84
2022-09-11T06:56:06.918Z,56.82
2022-09-11T06:58:33.804Z,56.56
2022-09-11T07:01:04.826Z,56.23
2022-09-11T07:03:32.134Z,56.25
2022-09-11T07:05:59.576Z,56.44
2022-09-11T07:08:26.629Z,56.10
2022-09-11T07:10:53.204Z,56.39
2022-09-11T07:13:19.704Z,56.34
2022-09-11T07:15:49.220Z,56.24
2022-09-11T07:18:16.104Z,56.22
2022-09-11T07:20:42.601Z,55.97
2022-09-11T07:23:09.117Z,56.27
2022-09-11T07:25:38.363Z,56.05
2022-09-11T07:28:05.188Z,56.00
2022-09-11T07:30:32.527Z,55.94
2022-09-11T07:32:59.519Z,56.23
2022-09-11T07:35:25.972Z,56.20
2022-09-11T07:37:52.863Z,56.10
2022-09-11T07:40:19.390Z,55.71
2022-09-11T07:42:45.867Z,55.95
2022-09-11T07:45:12.318Z,55.79
2022-09-11T07:47:38.800Z,56.00
2022-09-11T07:50:06.139Z,55.96
2022-09-11T07:52:33.069Z,55.86
2022-09-11T07:55:01.352Z,56.05
2022-09-11T07:57:30.420Z,55.80
2022-09-11T07:59:56.943Z,55.63
2022-09-11T08:02:23.773Z,55.88
2022-09-11T08:04:51.649Z,56.09
2022-09-11T08:07:18.474Z,56.29
2022-09-11T08:09:44.995Z,56.80
2022-09-11T08:12:12.068Z,56.52
2022-09-11T08:14:38.705Z,56.45
2022-09-11T08:17:05.208Z,56.24
2022-09-11T08:19:32.764Z,56.37
2022-09-11T08:21:59.261Z,56.03
2022-09-11T08:24:27.339Z,56.12
2022-09-11T08:26:53.836Z,56.01
2022-09-11T08:29:20.304Z,55.82
2022-09-11T08:31:46.768Z,55.92
2022-09-11T08:34:13.359Z,55.79
2022-09-11T08:36:40.012Z,55.81
2022-09-11T08:39:06.808Z,55.83
2022-09-11T08:41:48.845Z,56.19
2022-09-11T08:44:50.001Z,56.60
2022-09-11T08:47:22.429Z,56.17
2022-09-11T08:50:19.111Z,56.50
2022-09-11T08:52:46.223Z,56.08
2022-09-11T08:55:14.632Z,56.09
2022-09-11T08:57:46.630Z,56.12
2022-09-11T09:00:20.311Z,56.00
2022-09-11T09:03:12.580Z,56.30
2022-09-11T09:06:04.354Z,56.27
2022-09-11T09:08:37.332Z,56.46
2022-09-11T09:11:22.100Z,56.10
2022-09-11T09:13:55.357Z,56.33
2022-09-11T09:16:59.208Z,56.35
2022-09-11T09:19:32.434Z,56.09
2022-09-11T09:22:12.355Z,55.96
2022-09-11T09:24:50.903Z,56.06
2022-09-11T09:27:31.113Z,56.17
2022-09-11T09:30:01.225Z,55.88
2022-09-11T09:32:36.672Z,55.74
2022-09-11T09:35:13.254Z,55.72
2022-09-11T09:37:39.824Z,55.83
2022-09-11T09:40:10.333Z,55.68
2022-09-11T09:42:47.535Z,55.41
2022-09-11T09:45:50.225Z,55.41
2022-09-11T09:48:16.925Z,55.30
2022-09-11T09:50:46.179Z,55.52
2022-09-11T09:53:32.800Z,55.10
2022-09-11T09:56:02.000Z,55.31
2022-09-11T09:58:34.387Z,55.05
2022-09-11T10:01:01.039Z,54.99
2022-09-11T10:03:27.598Z,55.06
2022-09-11T10:05:55.964Z,54.91
2022-09-11T10:08:29.237Z,54.61
2022-09-11T10:11:06.976Z,54.15
2022-09-11T10:13:52.720Z,54.52
2022-09-11T10:16:22.619Z,54.34
2022-09-11T10:18:49.487Z,54.47
2022-09-11T10:21:22.968Z,54.34
2022-09-11T10:23:54.547Z,54.35
2022-09-11T10:26:30.172Z,54.42
2022-09-11T10:29:21.302Z,54.57
2022-09-11T10:31:54.493Z,54.72
2022-09-11T10:34:24.075Z,54.72
2022-09-11T10:36:56.385Z,54.53
2022-09-11T10:39:25.919Z,54.27
2022-09-11T10:41:55.050Z,54.56
2022-09-11T10:44:22.569Z,54.40
2022-09-11T10:47:22.063Z,54.62
2022-09-11T10:49:48.947Z,54.38
2022-09-11T10:52:15.614Z,54.27
2022-09-11T10:55:07.564Z,54.07
2022-09-11T10:57:40.007Z,54.01
2022-09-11T11:00:25.685Z,53.94
2022-09-11T11:02:54.482Z,53.85
2022-09-11T11:05:39.233Z,53.59
2022-09-11T11:08:12.197Z,53.91
2022-09-11T11:10:42.405Z,53.30
2022-09-11T11:13:37.204Z,53.23
2022-09-11T11:16:29.194Z,53.43
2022-09-11T11:19:07.821Z,53.49
2022-09-11T11:21:53.053Z,53.54
2022-09-11T11:24:19.604Z,53.62
2022-09-11T11:27:00.011Z,53.25
2022-09-11T11:29:47.199Z,53.49
2022-09-11T11:32:27.897Z,53.11
2022-09-11T11:35:17.914Z,53.03
2022-09-11T11:37:49.119Z,53.29
2022-09-11T11:40:36.933Z,52.85
2022-09-11T11:43:11.438Z,52.71
2022-09-11T11:46:02.429Z,52.95
2022-09-11T11:48:54.854Z,52.06
2022-09-11T11:51:32.736Z,51.69
2022-09-11T11:54:17.385Z,52.12
2022-09-11T11:57:05.095Z,52.39
2022-09-11T11:59:46.781Z,52.46
2022-09-11T12:02:22.589Z,52.23
2022-09-11T12:05:03.368Z,52.44
2022-09-11T12:07:33.236Z,52.30
2022-09-11T12:10:01.976Z,52.26
2022-09-11T12:12:33.849Z,52.36
2022-09-11T12:15:10.043Z,52.45
2022-09-11T12:17:39.802Z,52.74
2022-09-11T12:20:13.479Z,52.33
2022-09-11T12:22:48.707Z,52.61
2022-09-11T12:25:21.396Z,52.08
2022-09-11T12:27:50.844Z,52.16
2022-09-11T12:30:17.472Z,51.81
2022-09-11T12:32:51.293Z,51.06
2022-09-11T12:35:32.424Z,50.77
2022-09-11T12:38:13.259Z,50.27
2022-09-11T12:40:39.680Z,51.18
2022-09-11T12:43:28.015Z,50.49
2022-09-11T12:45:54.689Z,50.89
2022-09-11T12:48:42.712Z,50.58
2022-09-11T12:51:21.364Z,49.74
2022-09-11T12:53:51.378Z,49.56
2022-09-11T12:56:22.787Z,49.33
2022-09-11T12:58:59.840Z,49.06
2022-09-11T13:01:31.110Z,49.18
2022-09-11T13:04:01.123Z,49.33
2022-09-11T13:06:48.673Z,49.09
2022-09-11T13:09:26.277Z,48.63
2022-09-11T13:11:54.640Z,49.25
2022-09-11T13:14:28.238Z,48.82
2022-09-11T13:16:56.963Z,48.45
2022-09-11T13:19:31.246Z,48.58
2022-09-11T13:21:57.726Z,48.88
2022-09-11T13:24:27.769Z,48.83
2022-09-11T13:27:04.909Z,48.35
2022-09-11T13:29:35.250Z,48.29
2022-09-11T13:32:15.143Z,48.11
2022-09-11T13:34:53.838Z,48.07
2022-09-11T13:37:40.925Z,48.05
2022-09-11T13:40:18.296Z,47.55
2022-09-11T13:42:44.988Z,48.04
2022-09-11T13:45:17.965Z,48.03
2022-09-11T13:47:44.808Z,48.53
2022-09-11T13:50:15.208Z,47.85
2022-09-11T13:52:43.721Z,48.05
2022-09-11T13:55:12.318Z,48.56
2022-09-11T13:58:02.830Z,47.60
2022-09-11T14:00:42.965Z,47.35
2022-09-11T14:03:20.347Z,47.34
2022-09-11T14:05:59.320Z,47.67
2022-09-11T14:08:32.745Z,47.49
2022-09-11T14:11:11.151Z,46.69
2022-09-11T14:13:48.940Z,46.43
2022-09-11T14:16:15.414Z,46.84
2022-09-11T14:19:03.814Z,46.17
2022-09-11T14:21:36.295Z,46.43
2022-09-11T14:24:07.217Z,46.60
2022-09-11T14:26:36.555Z,46.73
2022-09-11T14:29:23.146Z,46.32
2022-09-11T14:31:53.554Z,46.40
2022-09-11T14:34:30.096Z,45.59
2022-09-11T14:37:11.221Z,45.83
2022-09-11T14:39:49.207Z,45.11
2022-09-11T14:42:19.344Z,45.96
2022-09-11T14:44:45.832Z,45.74
2022-09-11T14:47:15.635Z,45.07
2022-09-11T14:49:42.175Z,45.59
2022-09-11T14:52:13.824Z,44.23
2022-09-11T14:54:40.557Z,45.09
2022-09-11T14:57:20.331Z,45.33
2022-09-11T14:59:47.031Z,45.22
2022-09-11T15:02:16.151Z,44.90
2022-09-11T15:04:42.804Z,45.23
2022-09-11T15:07:11.782Z,44.85
2022-09-11T15:09:38.588Z,44.73
2022-09-11T15:12:10.180Z,44.55
2022-09-11T15:14:55.647Z,44.68
2022-09-11T15:17:25.197Z,44.90
2022-09-11T15:19:52.747Z,44.74
2022-09-11T15:22:19.675Z,44.64
2022-09-11T15:24:49.409Z,44.54
2022-09-11T15:27:17.156Z,44.61
2022-09-11T15:29:44.275Z,44.61
2022-09-11T15:32:11.426Z,44.60
2022-09-11T15:34:39.794Z,44.21
2022-09-11T15:37:06.348Z,43.81
2022-09-11T15:39:33.997Z,43.80
2022-09-11T15:42:01.967Z,44.02
2022-09-11T15:44:29.101Z,43.96
2022-09-11T15:46:57.421Z,43.77
2022-09-11T15:49:24.640Z,43.87
2022-09-11T15:51:53.761Z,43.57
2022-09-11T15:54:20.581Z,43.84
2022-09-11T15:56:47.079Z,43.70
2022-09-11T15:59:15.258Z,43.62
2022-09-11T16:01:42.816Z,43.42
2022-09-11T16:04:11.538Z,43.82
2022-09-11T16:06:41.111Z,43.29
2022-09-11T16:09:13.098Z,43.62
2022-09-11T16:11:40.899Z,43.28
2022-09-11T16:14:08.816Z,43.40
2022-09-11T16:16:35.630Z,43.17
2022-09-11T16:19:02.141Z,43.64
2022-09-11T16:21:29.055Z,43.42
2022-09-11T16:24:00.642Z,43.52
2022-09-11T16:26:29.070Z,43.67
2022-09-11T16:28:55.593Z,43.50
2022-09-11T16:31:22.127Z,43.63
2022-09-11T16:33:50.282Z,42.80
2022-09-11T16:36:21.384Z,42.94
2022-09-11T16:38:50.210Z,42.70
2022-09-11T16:41:19.830Z,42.68
2022-09-11T16:43:48.979Z,42.73
2022-09-11T16:46:24.503Z,42.81
2022-09-11T16:48:54.486Z,42.85
2022-09-11T16:51:23.479Z,43.75
2022-09-11T16:53:50.553Z,43.22
2022-09-11T16:56:20.333Z,43.29
2022-09-11T16:58:47.301Z,43.23
2022-09-11T17:01:22.568Z,43.30
2022-09-11T17:03:51.278Z,43.42
2022-09-11T17:06:22.202Z,43.63
2022-09-11T17:08:52.319Z,43.27
2022-09-11T17:11:21.137Z,43.71
2022-09-11T17:13:48.344Z,43.92
2022-09-11T17:16:18.231Z,43.48
2022-09-11T17:18:49.384Z,43.75
2022-09-11T17:21:16.404Z,43.68
2022-09-11T17:23:43.665Z,43.89
2022-09-11T17:26:12.640Z,44.30
2022-09-11T17:28:40.566Z,44.65
2022-09-11T17:31:09.175Z,44.56
2022-09-11T17:33:40.266Z,44.61
2022-09-11T17:36:10.747Z,45.19
2022-09-11T17:38:39.591Z,44.95
2022-09-11T17:41:08.244Z,45.11
2022-09-11T17:43:36.583Z,45.60
2022-09-11T17:46:11.775Z,45.48
2022-09-11T17:48:39.675Z,45.48
2022-09-11T17:51:11.143Z,45.63
2022-09-11T17:53:39.447Z,45.66
2022-09-11T17:56:09.755Z,46.00
2022-09-11T17:58:36.964Z,46.10
2022-09-11T18:01:04.566Z,45.92
2022-09-11T18:03:32.239Z,46.09
2022-09-11T18:05:59.948Z,46.06
2022-09-11T18:08:26.590Z,46.33
2022-09-11T18:11:01.491Z,46.64
2022-09-11T18:13:31.637Z,46.57
2022-09-11T18:15:58.578Z,46.54
2022-09-11T18:18:25.227Z,46.58
2022-09-11T18:20:55.411Z,46.90
2022-09-11T18:23:24.781Z,47.25
2022-09-11T18:25:51.677Z,47.06
2022-09-11T18:28:29.788Z,47.44
2022-09-11T18:31:06.464Z,47.95
2022-09-11T18:33:33.611Z,47.59
2022-09-11T18:36:05.916Z,48.00
2022-09-11T18:38:33.173Z,47.97
2022-09-11T18:41:00.691Z,48.10
2022-09-11T18:43:28.048Z,48.31
2022-09-11T18:45:54.990Z,48.44
2022-09-11T18:48:21.768Z,48.45
2022-09-11T18:50:48.234Z,48.50
2022-09-11T18:53:15.273Z,48.48
2022-09-11T18:55:41.907Z,48.95
2022-09-11T18:58:08.442Z,48.78
2022-09-11T19:00:36.786Z,49.08
2022-09-11T19:03:03.749Z,48.99
2022-09-11T19:05:31.098Z,49.28
2022-09-11T19:08:00.172Z,49.12
2022-09-11T19:10:26.910Z,49.34
2022-09-11T19:12:54.191Z,49.48
2022-09-11T19:15:20.718Z,49.65
2022-09-11T19:17:48.902Z,49.38
2022-09-11T19:20:16.283Z,49.94
2022-09-11T19:22:42.797Z,49.74
2022-09-11T19:25:10.014Z,49.94
2022-09-11T19:27:37.229Z,49.80
2022-09-11T19:30:06.212Z,50.14
2022-09-11T19:32:33.224Z,50.13
2022-09-11T19:35:00.445Z,50.44
2022-09-11T19:37:28.298Z,50.28
2022-09-11T19:39:57.070Z,50.38
2022-09-11T19:42:23.910Z,50.27
2022-09-11T19:44:55.609Z,50.50
2022-09-11T19:47:24.812Z,50.53
2022-09-11T19:49:51.310Z,51.14
2022-09-11T19:52:17.901Z,50.23
2022-09-11T19:54:44.379Z,50.48
2022-09-11T19:57:10.879Z,50.66
2022-09-11T19:59:38.104Z,50.68
2022-09-11T20:02:08.876Z,50.90
2022-09-11T20:11:01.381Z,50.97
2022-09-11T20:21:17.493Z,51.84
2022-09-11T20:30:14.309Z,51.97
2022-09-11T20:33:09.437Z,51.95
2022-09-11T20:35:35.936Z,51.14
2022-09-11T20:38:02.441Z,51.38
2022-09-11T20:40:28.942Z,51.25
2022-09-11T20:42:55.504Z,51.31
2022-09-11T20:45:21.988Z,51.67
2022-09-11T20:47:48.473Z,51.51
2022-09-11T20:50:15.213Z,51.52
2022-09-11T20:52:46.623Z,51.67
2022-09-11T20:55:13.208Z,51.64
2022-09-11T20:57:39.739Z,51.74
2022-09-11T21:00:07.285Z,51.85
2022-09-11T21:02:34.165Z,51.91
2022-09-11T21:05:00.849Z,51.47
2022-09-11T21:07:27.418Z,51.71
2022-09-11T21:09:54.017Z,51.89
2022-09-11T21:12:20.587Z,51.90
2022-09-11T21:14:47.158Z,52.03
2022-09-11T21:17:13.648Z,52.27
2022-09-11T21:19:40.167Z,52.04
2022-09-11T21:22:06.630Z,52.08
2022-09-11T21:24:33.254Z,51.90
2022-09-11T21:26:59.739Z,51.86
2022-09-11T21:29:26.242Z,51.83
2022-09-11T21:31:53.316Z,51.89
2022-09-11T21:34:19.835Z,51.87
2022-09-11T21:36:46.304Z,52.03
2022-09-11T21:39:13.019Z,52.23
2022-09-11T21:41:39.530Z,51.94
2022-09-11T21:44:06.158Z,51.98
2022-09-11T21:46:32.898Z,51.97
2022-09-11T21:48:59.968Z,51.79
2022-09-11T21:51:26.504Z,52.04
2022-09-11T21:53:58.877Z,52.09
2022-09-11T21:56:31.040Z,52.26
2022-09-11T21:58:58.468Z,52.09
2022-09-11T22:01:26.503Z,52.19
2022-09-11T22:03:54.423Z,52.08
2022-09-11T22:06:24.663Z,52.04
2022-09-11T22:08:52.035Z,51.88
2022-09-11T22:11:18.563Z,51.89
2022-09-11T22:13:46.699Z,52.01
2022-09-11T22:16:18.733Z,52.11
2022-09-11T22:18:49.652Z,52.15
2022-09-11T22:21:16.680Z,51.94
2022-09-11T22:23:43.437Z,51.97
2022-09-11T22:26:15.803Z,52.20
2022-09-11T22:28:43.598Z,51.97
2022-09-11T22:31:19.487Z,52.53
2022-09-11T22:33:46.200Z,52.16
2022-09-11T22:36:21.779Z,52.31
2022-09-11T22:38:48.758Z,51.80
2022-09-11T22:41:16.356Z,51.88
2022-09-11T22:43:42.899Z,52.03
2022-09-11T22:46:09.678Z,52.14
2022-09-11T22:48:36.977Z,52.22
2022-09-11T22:51:03.840Z,52.30
2022-09-11T22:53:32.083Z,52.49
2022-09-11T22:55:58.711Z,52.24
2022-09-11T22:58:25.510Z,52.09
2022-09-11T23:00:54.825Z,52.24
2022-09-11T23:03:21.556Z,52.24
2022-09-11T23:06:06.668Z,51.94
2022-09-11T23:08:39.119Z,52.15
2022-09-11T23:11:06.001Z,52.20
2022-09-11T23:13:33.823Z,52.20
2022-09-11T23:16:00.701Z,52.05
2022-09-11T23:18:28.008Z,51.99
2022-09-11T23:20:55.812Z,52.24
2022-09-11T23:23:23.486Z,52.20
2022-09-11T23:25:50.434Z,52.04
2022-09-11T23:28:17.104Z,52.24
2022-09-11T23:30:44.030Z,52.25
2022-09-11T23:33:11.049Z,52.04
2022-09-11T23:35:39.360Z,52.01
2022-09-11T23:40:33.830Z,52.17
2022-09-11T23:43:02.053Z,51.98
2022-09-11T23:45:29.097Z,52.10
2022-09-11T23:47:55.632Z,52.24
2022-09-11T23:50:22.183Z,52.10
2022-09-11T23:52:49.026Z,52.22
2022-09-11T23:55:17.380Z,52.09
2022-09-11T23:57:43.896Z,52.12
